sensor_id;sensor_type;location;lat;lon;timestamp;temperature;humidity
44886;DHT22;36669;51.428;21.162;2022-09-12T00:01:22;11.50;99.90
44886;DHT22;36669;51.428;21.162;2022-09-12T00:03:57;11.50;99.90
44886;DHT22;36669;51.428;21.162;2022-09-12T00:06:26;11.50;99.90
44886;DHT22;36669;51.428;21.162;2022-09-12T00:09:00;11.50;99.90
44886;DHT22;36669;51.428;21.162;2022-09-12T00:11:27;11.50;99.90
44886;DHT22;36669;51.428;21.162;2022-09-12T00:13:59;11.50;99.90
44886;DHT22;36669;51.428;21.162;2022-09-12T00:16:28;11.50;99.90
44886;DHT22;36669;51.428;21.162;2022-09-12T00:18:56;11.40;99.90
44886;DHT22;36669;51.428;21.162;2022-09-12T00:21:22;11.40;99.90
44886;DHT22;36669;51.428;21.162;2022-09-12T00:23:48;11.30;99.90
44886;DHT22;36669;51.428;21.162;2022-09-12T00:26:16;11.30;99.90
44886;DHT22;36669;51.428;21.162;2022-09-12T00:28:43;11.30;99.90
44886;DHT22;36669;51.428;21.162;2022-09-12T00:31:12;11.30;99.90
44886;DHT22;36669;51.428;21.162;2022-09-12T00:33:38;11.30;99.90
44886;DHT22;36669;51.428;21.162;2022-09-12T00:36:31;11.20;99.90
44886;DHT22;36669;51.428;21.162;2022-09-12T00:38:58;11.20;99.90
44886;DHT22;36669;51.428;21.162;2022-09-12T00:41:38;11.20;99.90
44886;DHT22;36669;51.428;21.162;2022-09-12T00:47:05;11.10;99.90
44886;DHT22;36669;51.428;21.162;2022-09-12T00:57:18;11.00;99.90
44886;DHT22;36669;51.428;21.162;2022-09-12T00:59:53;11.00;99.90
44886;DHT22;36669;51.428;21.162;2022-09-12T01:02:20;11.00;99.90
44886;DHT22;36669;51.428;21.162;2022-09-12T01:04:46;11.00;99.90
44886;DHT22;36669;51.428;21.162;2022-09-12T01:07:14;11.00;99.90
44886;DHT22;36669;51.428;21.162;2022-09-12T01:09:43;11.00;99.90
44886;DHT22;36669;51.428;21.162;2022-09-12T01:12:09;10.90;99.90
44886;DHT22;36669;51.428;21.162;2022-09-12T01:14:35;10.90;99.90
44886;DHT22;36669;51.428;21.162;2022-09-12T01:17:03;10.90;99.90
44886;DHT22;36669;51.428;21.162;2022-09-12T01:26:32;10.90;99.90
44886;DHT22;36669;51.428;21.162;2022-09-12T01:35:05;10.80;99.90
44886;DHT22;36669;51.428;21.162;2022-09-12T01:46:16;10.80;99.90
44886;DHT22;36669;51.428;21.162;2022-09-12T01:48:54;10.80;99.90
44886;DHT22;36669;51.428;21.162;2022-09-12T01:51:22;10.80;99.90
44886;DHT22;36669;51.428;21.162;2022-09-12T01:54:08;10.80;99.90
44886;DHT22;36669;51.428;21.162;2022-09-12T01:56:38;10.80;99.90
44886;DHT22;36669;51.428;21.162;2022-09-12T01:59:34;10.80;99.90
44886;DHT22;36669;51.428;21.162;2022-09-12T02:02:08;10.70;99.90
44886;DHT22;36669;51.428;21.162;2022-09-12T02:04:45;10.70;99.90
44886;DHT22;36669;51.428;21.162;2022-09-12T02:07:20;10.60;99.90
44886;DHT22;36669;51.428;21.162;2022-09-12T02:09:52;10.70;99.90
44886;DHT22;36669;51.428;21.162;2022-09-12T02:12:24;10.70;99.90
44886;DHT22;36669;51.428;21.162;2022-09-12T02:14:58;10.70;99.90
44886;DHT22;36669;51.428;21.162;2022-09-12T02:17:26;10.70;99.90
44886;DHT22;36669;51.428;21.162;2022-09-12T02:20:29;10.70;99.90
44886;DHT22;36669;51.428;21.162;2022-09-12T02:22:56;10.60;99.90
44886;DHT22;36669;51.428;21.162;2022-09-12T02:25:24;10.60;99.90
44886;DHT22;36669;51.428;21.162;2022-09-12T02:27:57;10.60;99.90
44886;DHT22;36669;51.428;21.162;2022-09-12T02:30:28;10.60;99.90
44886;DHT22;36669;51.428;21.162;2022-09-12T02:33:09;10.50;99.90
44886;DHT22;36669;51.428;21.162;2022-09-12T02:35:56;10.50;99.90
44886;DHT22;36669;51.428;21.162;2022-09-12T02:38:42;10.50;99.90
44886;DHT22;36669;51.428;21.162;2022-09-12T02:41:08;10.50;99.90
44886;DHT22;36669;51.428;21.162;2022-09-12T02:43:33;10.50;99.90
44886;DHT22;36669;51.428;21.162;2022-09-12T02:45:59;10.50;99.90
44886;DHT22;36669;51.428;21.162;2022-09-12T02:48:30;10.50;99.90
44886;DHT22;36669;51.428;21.162;2022-09-12T02:50:57;10.50;99.90
44886;DHT22;36669;51.428;21.162;2022-09-12T02:53:24;10.40;99.90
44886;DHT22;36669;51.428;21.162;2022-09-12T02:55:50;10.40;99.90
44886;DHT22;36669;51.428;21.162;2022-09-12T02:58:19;10.40;99.90
44886;DHT22;36669;51.428;21.162;2022-09-12T03:01:44;10.40;99.90
44886;DHT22;36669;51.428;21.162;2022-09-12T03:09:14;10.30;99.90
44886;DHT22;36669;51.428;21.162;2022-09-12T03:22:56;10.30;99.90
44886;DHT22;36669;51.428;21.162;2022-09-12T03:25:36;10.40;99.90
44886;DHT22;36669;51.428;21.162;2022-09-12T03:28:11;10.40;99.90
44886;DHT22;36669;51.428;21.162;2022-09-12T03:30:47;10.30;99.90
44886;DHT22;36669;51.428;21.162;2022-09-12T03:33:16;10.40;99.90
44886;DHT22;36669;51.428;21.162;2022-09-12T03:35:42;10.30;99.90
44886;DHT22;36669;51.428;21.162;2022-09-12T03:38:08;10.30;99.90
44886;DHT22;36669;51.428;21.162;2022-09-12T03:40:35;10.30;99.90
44886;DHT22;36669;51.428;21.162;2022-09-12T03:43:01;10.30;99.90
44886;DHT22;36669;51.428;21.162;2022-09-12T03:45:27;10.30;99.90
44886;DHT22;36669;51.428;21.162;2022-09-12T03:47:52;10.30;99.90
44886;DHT22;36669;51.428;21.162;2022-09-12T03:50:18;10.30;99.90
44886;DHT22;36669;51.428;21.162;2022-09-12T03:52:43;10.30;99.90
44886;DHT22;36669;51.428;21.162;2022-09-12T03:55:09;10.30;99.90
44886;DHT22;36669;51.428;21.162;2022-09-12T03:57:35;10.30;99.90
44886;DHT22;36669;51.428;21.162;2022-09-12T04:00:00;10.30;99.90
44886;DHT22;36669;51.428;21.162;2022-09-12T04:02:26;10.30;99.90
44886;DHT22;36669;51.428;21.162;2022-09-12T04:04:52;10.30;99.90
44886;DHT22;36669;51.428;21.162;2022-09-12T04:07:17;10.30;99.90
44886;DHT22;36669;51.428;21.162;2022-09-12T04:09:43;10.30;99.90
44886;DHT22;36669;51.428;21.162;2022-09-12T04:12:09;10.30;99.90
44886;DHT22;36669;51.428;21.162;2022-09-12T04:14:34;10.20;99.90
44886;DHT22;36669;51.428;21.162;2022-09-12T04:17:00;10.30;99.90
44886;DHT22;36669;51.428;21.162;2022-09-12T04:19:26;10.30;99.90
44886;DHT22;36669;51.428;21.162;2022-09-12T04:21:52;10.30;99.90
44886;DHT22;36669;51.428;21.162;2022-09-12T04:24:17;10.30;99.90
44886;DHT22;36669;51.428;21.162;2022-09-12T04:26:43;10.30;99.90
44886;DHT22;36669;51.428;21.162;2022-09-12T04:29:10;10.30;99.90
44886;DHT22;36669;51.428;21.162;2022-09-12T04:31:36;10.30;99.90
44886;DHT22;36669;51.428;21.162;2022-09-12T04:34:01;10.30;99.90
44886;DHT22;36669;51.428;21.162;2022-09-12T04:36:28;10.30;99.90
44886;DHT22;36669;51.428;21.162;2022-09-12T04:38:54;10.30;99.90
44886;DHT22;36669;51.428;21.162;2022-09-12T04:41:29;10.30;99.90
44886;DHT22;36669;51.428;21.162;2022-09-12T04:43:56;10.40;99.90
44886;DHT22;36669;51.428;21.162;2022-09-12T04:46:22;10.30;99.90
44886;DHT22;36669;51.428;21.162;2022-09-12T04:48:48;10.40;99.90
44886;DHT22;36669;51.428;21.162;2022-09-12T04:51:22;10.40;99.90
44886;DHT22;36669;51.428;21.162;2022-09-12T04:53:52;10.40;99.90
44886;DHT22;36669;51.428;21.162;2022-09-12T04:56:19;10.40;99.90
44886;DHT22;36669;51.428;21.162;2022-09-12T04:58:45;10.40;99.90
44886;DHT22;36669;51.428;21.162;2022-09-12T05:01:13;10.40;99.90
44886;DHT22;36669;51.428;21.162;2022-09-12T05:03:40;10.40;99.90
44886;DHT22;36669;51.428;21.162;2022-09-12T05:06:07;10.50;99.90
44886;DHT22;36669;51.428;21.162;2022-09-12T05:08:34;10.50;99.90
44886;DHT22;36669;51.428;21.162;2022-09-12T05:11:04;10.40;99.90
44886;DHT22;36669;51.428;21.162;2022-09-12T05:13:30;10.40;99.90
44886;DHT22;36669;51.428;21.162;2022-09-12T05:15:57;10.40;99.90
44886;DHT22;36669;51.428;21.162;2022-09-12T05:18:23;10.40;99.90
44886;DHT22;36669;51.428;21.162;2022-09-12T05:20:49;10.40;99.90
44886;DHT22;36669;51.428;21.162;2022-09-12T05:23:14;10.40;99.90
44886;DHT22;36669;51.428;21.162;2022-09-12T05:25:48;10.40;99.90
44886;DHT22;36669;51.428;21.162;2022-09-12T05:28:14;10.40;99.90
44886;DHT22;36669;51.428;21.162;2022-09-12T05:30:39;10.50;99.90
44886;DHT22;36669;51.428;21.162;2022-09-12T05:33:05;10.50;99.90
44886;DHT22;36669;51.428;21.162;2022-09-12T05:35:30;10.50;99.90
44886;DHT22;36669;51.428;21.162;2022-09-12T05:37:56;10.50;99.90
44886;DHT22;36669;51.428;21.162;2022-09-12T05:40:21;10.50;99.90
44886;DHT22;36669;51.428;21.162;2022-09-12T05:42:47;10.50;99.90
44886;DHT22;36669;51.428;21.162;2022-09-12T05:45:12;10.50;99.90
44886;DHT22;36669;51.428;21.162;2022-09-12T05:47:38;10.60;99.90
44886;DHT22;36669;51.428;21.162;2022-09-12T05:50:03;10.60;99.90
44886;DHT22;36669;51.428;21.162;2022-09-12T05:52:31;10.50;99.90
44886;DHT22;36669;51.428;21.162;2022-09-12T05:54:56;10.50;99.90
44886;DHT22;36669;51.428;21.162;2022-09-12T05:57:22;10.60;99.90
44886;DHT22;36669;51.428;21.162;2022-09-12T05:59:47;10.60;99.90
44886;DHT22;36669;51.428;21.162;2022-09-12T06:02:13;10.60;99.90
44886;DHT22;36669;51.428;21.162;2022-09-12T06:04:38;10.60;99.90
44886;DHT22;36669;51.428;21.162;2022-09-12T06:07:04;10.60;99.90
44886;DHT22;36669;51.428;21.162;2022-09-12T06:09:29;10.60;99.90
44886;DHT22;36669;51.428;21.162;2022-09-12T06:11:55;10.50;99.90
44886;DHT22;36669;51.428;21.162;2022-09-12T06:14:21;10.60;99.90
44886;DHT22;36669;51.428;21.162;2022-09-12T06:16:46;10.60;99.90
44886;DHT22;36669;51.428;21.162;2022-09-12T06:19:18;10.60;99.90
44886;DHT22;36669;51.428;21.162;2022-09-12T06:21:44;10.50;99.90
44886;DHT22;36669;51.428;21.162;2022-09-12T06:24:10;10.60;99.90
44886;DHT22;36669;51.428;21.162;2022-09-12T06:26:36;10.50;99.90
44886;DHT22;36669;51.428;21.162;2022-09-12T06:29:02;10.50;99.90
44886;DHT22;36669;51.428;21.162;2022-09-12T06:31:34;10.50;99.90
44886;DHT22;36669;51.428;21.162;2022-09-12T06:34:02;10.50;99.90
44886;DHT22;36669;51.428;21.162;2022-09-12T06:36:31;10.50;99.90
44886;DHT22;36669;51.428;21.162;2022-09-12T06:38:58;10.50;99.90
44886;DHT22;36669;51.428;21.162;2022-09-12T06:41:25;10.50;99.90
44886;DHT22;36669;51.428;21.162;2022-09-12T06:43:51;10.50;99.90
44886;DHT22;36669;51.428;21.162;2022-09-12T06:46:17;10.50;99.90
44886;DHT22;36669;51.428;21.162;2022-09-12T06:48:42;10.50;99.90
44886;DHT22;36669;51.428;21.162;2022-09-12T06:51:10;10.50;99.90
44886;DHT22;36669;51.428;21.162;2022-09-12T06:53:36;10.60;99.90
44886;DHT22;36669;51.428;21.162;2022-09-12T06:56:04;10.60;99.90
44886;DHT22;36669;51.428;21.162;2022-09-12T06:58:30;10.60;99.90
44886;DHT22;36669;51.428;21.162;2022-09-12T07:01:11;10.60;99.90
44886;DHT22;36669;51.428;21.162;2022-09-12T07:03:38;10.70;99.90
44886;DHT22;36669;51.428;21.162;2022-09-12T07:06:10;10.80;99.90
44886;DHT22;36669;51.428;21.162;2022-09-12T07:08:36;10.70;99.90
44886;DHT22;36669;51.428;21.162;2022-09-12T07:11:12;10.70;99.90
44886;DHT22;36669;51.428;21.162;2022-09-12T07:13:39;10.70;99.90
44886;DHT22;36669;51.428;21.162;2022-09-12T07:16:05;10.80;99.90
44886;DHT22;36669;51.428;21.162;2022-09-12T07:18:32;10.80;99.90
44886;DHT22;36669;51.428;21.162;2022-09-12T07:21:01;10.80;99.90
44886;DHT22;36669;51.428;21.162;2022-09-12T07:23:28;10.80;99.90
44886;DHT22;36669;51.428;21.162;2022-09-12T07:25:54;10.80;99.90
44886;DHT22;36669;51.428;21.162;2022-09-12T07:28:20;10.80;99.90
44886;DHT22;36669;51.428;21.162;2022-09-12T07:30:45;10.80;99.90
44886;DHT22;36669;51.428;21.162;2022-09-12T07:33:11;10.80;99.90
44886;DHT22;36669;51.428;21.162;2022-09-12T07:35:36;10.80;99.90
44886;DHT22;36669;51.428;21.162;2022-09-12T07:38:02;10.90;99.90
44886;DHT22;36669;51.428;21.162;2022-09-12T07:40:27;10.90;99.90
44886;DHT22;36669;51.428;21.162;2022-09-12T07:42:53;10.90;99.90
44886;DHT22;36669;51.428;21.162;2022-09-12T07:45:18;10.90;99.90
44886;DHT22;36669;51.428;21.162;2022-09-12T07:47:44;10.90;99.90
44886;DHT22;36669;51.428;21.162;2022-09-12T07:50:09;10.90;99.90
44886;DHT22;36669;51.428;21.162;2022-09-12T07:52:35;10.90;99.90
44886;DHT22;36669;51.428;21.162;2022-09-12T07:55:00;10.90;99.90
44886;DHT22;36669;51.428;21.162;2022-09-12T07:57:26;10.90;99.90
44886;DHT22;36669;51.428;21.162;2022-09-12T07:59:51;11.00;99.90
44886;DHT22;36669;51.428;21.162;2022-09-12T08:02:17;10.90;99.90
44886;DHT22;36669;51.428;21.162;2022-09-12T08:04:43;10.90;99.90
44886;DHT22;36669;51.428;21.162;2022-09-12T08:07:08;10.90;99.90
44886;DHT22;36669;51.428;21.162;2022-09-12T08:09:34;10.90;99.90
44886;DHT22;36669;51.428;21.162;2022-09-12T08:12:00;10.90;99.90
44886;DHT22;36669;51.428;21.162;2022-09-12T08:14:26;11.00;99.90
44886;DHT22;36669;51.428;21.162;2022-09-12T08:16:52;11.00;99.90
44886;DHT22;36669;51.428;21.162;2022-09-12T08:19:17;10.90;99.90
44886;DHT22;36669;51.428;21.162;2022-09-12T08:21:43;11.00;99.90
44886;DHT22;36669;51.428;21.162;2022-09-12T08:24:11;10.90;99.90
44886;DHT22;36669;51.428;21.162;2022-09-12T08:26:36;10.90;99.90
44886;DHT22;36669;51.428;21.162;2022-09-12T08:29:02;10.90;99.90
44886;DHT22;36669;51.428;21.162;2022-09-12T08:31:28;10.90;99.90
44886;DHT22;36669;51.428;21.162;2022-09-12T08:33:55;10.90;99.90
44886;DHT22;36669;51.428;21.162;2022-09-12T08:36:23;10.90;99.90
44886;DHT22;36669;51.428;21.162;2022-09-12T08:38:55;10.90;99.90
44886;DHT22;36669;51.428;21.162;2022-09-12T08:41:43;10.90;99.90
44886;DHT22;36669;51.428;21.162;2022-09-12T08:44:50;10.90;99.90
44886;DHT22;36669;51.428;21.162;2022-09-12T08:55:02;11.00;99.90
44886;DHT22;36669;51.428;21.162;2022-09-12T08:57:27;10.90;99.90
44886;DHT22;36669;51.428;21.162;2022-09-12T08:59:53;11.00;99.90
44886;DHT22;36669;51.428;21.162;2022-09-12T09:02:58;11.00;99.90
44886;DHT22;36669;51.428;21.162;2022-09-12T09:08:24;11.00;99.90
44886;DHT22;36669;51.428;21.162;2022-09-12T09:14:20;11.00;99.90
44886;DHT22;36669;51.428;21.162;2022-09-12T09:16:49;11.00;99.90
44886;DHT22;36669;51.428;21.162;2022-09-12T09:19:36;11.10;99.90
44886;DHT22;36669;51.428;21.162;2022-09-12T09:24:52;11.10;99.90
44886;DHT22;36669;51.428;21.162;2022-09-12T09:29:47;11.10;99.90
44886;DHT22;36669;51.428;21.162;2022-09-12T09:32:31;11.10;99.90
44886;DHT22;36669;51.428;21.162;2022-09-12T09:35:24;11.10;99.90
44886;DHT22;36669;51.428;21.162;2022-09-12T09:38:00;11.10;99.90
44886;DHT22;36669;51.428;21.162;2022-09-12T09:45:41;11.20;99.90
44886;DHT22;36669;51.428;21.162;2022-09-12T09:48:31;11.10;99.90
44886;DHT22;36669;51.428;21.162;2022-09-12T09:51:02;11.20;99.90
44886;DHT22;36669;51.428;21.162;2022-09-12T09:54:07;11.20;99.90
44886;DHT22;36669;51.428;21.162;2022-09-12T09:56:39;11.30;99.90
44886;DHT22;36669;51.428;21.162;2022-09-12T10:01:49;11.40;99.90
44886;DHT22;36669;51.428;21.162;2022-09-12T10:04:24;11.50;99.90
44886;DHT22;36669;51.428;21.162;2022-09-12T10:06:52;11.60;99.90
44886;DHT22;36669;51.428;21.162;2022-09-12T10:09:20;11.70;99.90
44886;DHT22;36669;51.428;21.162;2022-09-12T10:11:48;11.80;99.90
44886;DHT22;36669;51.428;21.162;2022-09-12T10:16:53;11.90;99.90
44886;DHT22;36669;51.428;21.162;2022-09-12T10:19:21;11.90;99.90
44886;DHT22;36669;51.428;21.162;2022-09-12T10:21:50;12.00;99.90
44886;DHT22;36669;51.428;21.162;2022-09-12T10:27:07;12.00;99.90
44886;DHT22;36669;51.428;21.162;2022-09-12T10:29:34;12.10;99.90
44886;DHT22;36669;51.428;21.162;2022-09-12T10:32:06;12.20;99.90
44886;DHT22;36669;51.428;21.162;2022-09-12T10:34:38;12.30;99.90
44886;DHT22;36669;51.428;21.162;2022-09-12T10:37:07;12.40;99.90
44886;DHT22;36669;51.428;21.162;2022-09-12T10:39:34;12.50;99.90
44886;DHT22;36669;51.428;21.162;2022-09-12T10:42:01;12.60;99.90
44886;DHT22;36669;51.428;21.162;2022-09-12T10:44:32;12.70;99.90
44886;DHT22;36669;51.428;21.162;2022-09-12T10:47:18;12.70;99.90
44886;DHT22;36669;51.428;21.162;2022-09-12T10:49:44;12.70;99.90
44886;DHT22;36669;51.428;21.162;2022-09-12T10:52:21;12.70;99.90
44886;DHT22;36669;51.428;21.162;2022-09-12T10:54:47;12.70;99.90
44886;DHT22;36669;51.428;21.162;2022-09-12T11:00:16;12.90;99.90
44886;DHT22;36669;51.428;21.162;2022-09-12T11:05:31;13.00;99.90
44886;DHT22;36669;51.428;21.162;2022-09-12T11:10:56;13.10;99.90
44886;DHT22;36669;51.428;21.162;2022-09-12T11:25:20;12.90;99.90
44886;DHT22;36669;51.428;21.162;2022-09-12T11:30:22;12.80;99.90
44886;DHT22;36669;51.428;21.162;2022-09-12T11:35:28;12.80;99.90
44886;DHT22;36669;51.428;21.162;2022-09-12T11:40:39;12.80;99.90
44886;DHT22;36669;51.428;21.162;2022-09-12T11:43:21;12.80;99.90
44886;DHT22;36669;51.428;21.162;2022-09-12T11:45:48;12.80;99.90
44886;DHT22;36669;51.428;21.162;2022-09-12T11:48:30;12.80;99.90
44886;DHT22;36669;51.428;21.162;2022-09-12T11:50:59;12.80;99.90
44886;DHT22;36669;51.428;21.162;2022-09-12T11:53:30;12.90;99.90
44886;DHT22;36669;51.428;21.162;2022-09-12T11:56:13;12.90;99.90
44886;DHT22;36669;51.428;21.162;2022-09-12T11:58:41;12.90;99.90
44886;DHT22;36669;51.428;21.162;2022-09-12T12:01:15;12.90;99.90
44886;DHT22;36669;51.428;21.162;2022-09-12T12:03:46;12.90;99.90
44886;DHT22;36669;51.428;21.162;2022-09-12T12:07:10;12.90;99.90
44886;DHT22;36669;51.428;21.162;2022-09-12T12:09:12;13.00;99.90
44886;DHT22;36669;51.428;21.162;2022-09-12T12:11:42;13.00;99.90
44886;DHT22;36669;51.428;21.162;2022-09-12T12:14:21;13.00;99.90
44886;DHT22;36669;51.428;21.162;2022-09-12T12:16:48;13.00;99.90
44886;DHT22;36669;51.428;21.162;2022-09-12T12:21:48;13.10;99.90
44886;DHT22;36669;51.428;21.162;2022-09-12T12:24:19;13.10;99.90
44886;DHT22;36669;51.428;21.162;2022-09-12T12:34:34;13.20;99.90
44886;DHT22;36669;51.428;21.162;2022-09-12T12:42:10;13.30;99.90
44886;DHT22;36669;51.428;21.162;2022-09-12T12:44:55;13.40;99.90
44886;DHT22;36669;51.428;21.162;2022-09-12T12:47:22;13.40;99.90
44886;DHT22;36669;51.428;21.162;2022-09-12T12:49:58;13.50;99.90
44886;DHT22;36669;51.428;21.162;2022-09-12T12:52:29;13.50;99.90
44886;DHT22;36669;51.428;21.162;2022-09-12T12:55:00;13.50;99.90
44886;DHT22;36669;51.428;21.162;2022-09-12T13:05:46;13.60;99.90
44886;DHT22;36669;51.428;21.162;2022-09-12T13:10:50;13.70;99.90
44886;DHT22;36669;51.428;21.162;2022-09-12T13:13:47;13.70;99.90
44886;DHT22;36669;51.428;21.162;2022-09-12T13:16:09;13.80;99.90
44886;DHT22;36669;51.428;21.162;2022-09-12T13:18:47;13.90;99.90
44886;DHT22;36669;51.428;21.162;2022-09-12T13:21:15;14.00;99.90
44886;DHT22;36669;51.428;21.162;2022-09-12T13:23:41;14.00;99.90
44886;DHT22;36669;51.428;21.162;2022-09-12T13:26:23;14.00;99.90
44886;DHT22;36669;51.428;21.162;2022-09-12T13:28:49;14.00;99.90
44886;DHT22;36669;51.428;21.162;2022-09-12T13:31:25;14.00;99.90
44886;DHT22;36669;51.428;21.162;2022-09-12T13:33:57;14.10;99.90
44886;DHT22;36669;51.428;21.162;2022-09-12T13:39:14;14.10;99.90
44886;DHT22;36669;51.428;21.162;2022-09-12T13:44:30;14.30;99.90
44886;DHT22;36669;51.428;21.162;2022-09-12T13:47:00;14.30;99.90
44886;DHT22;36669;51.428;21.162;2022-09-12T13:49:35;14.30;99.90
44886;DHT22;36669;51.428;21.162;2022-09-12T13:52:02;14.30;99.90
44886;DHT22;36669;51.428;21.162;2022-09-12T13:54:30;14.40;99.90
44886;DHT22;36669;51.428;21.162;2022-09-12T13:56:56;14.30;99.90
44886;DHT22;36669;51.428;21.162;2022-09-12T13:59:22;14.40;99.90
44886;DHT22;36669;51.428;21.162;2022-09-12T14:01:48;14.40;99.90
44886;DHT22;36669;51.428;21.162;2022-09-12T14:06:45;14.30;99.90
44886;DHT22;36669;51.428;21.162;2022-09-12T14:09:20;14.30;99.90
44886;DHT22;36669;51.428;21.162;2022-09-12T14:11:46;14.30;99.90
44886;DHT22;36669;51.428;21.162;2022-09-12T14:14:47;14.30;99.90
44886;DHT22;36669;51.428;21.162;2022-09-12T14:17:15;14.40;99.90
44886;DHT22;36669;51.428;21.162;2022-09-12T14:19:41;14.30;99.90
44886;DHT22;36669;51.428;21.162;2022-09-12T14:22:09;14.30;99.90
44886;DHT22;36669;51.428;21.162;2022-09-12T14:24:36;14.30;99.90
44886;DHT22;36669;51.428;21.162;2022-09-12T14:27:03;14.30;99.90
44886;DHT22;36669;51.428;21.162;2022-09-12T14:29:30;14.40;99.90
44886;DHT22;36669;51.428;21.162;2022-09-12T14:32:00;14.40;99.90
44886;DHT22;36669;51.428;21.162;2022-09-12T14:34:26;14.40;99.90
44886;DHT22;36669;51.428;21.162;2022-09-12T14:36:53;14.40;99.90
44886;DHT22;36669;51.428;21.162;2022-09-12T14:39:36;14.40;99.90
44886;DHT22;36669;51.428;21.162;2022-09-12T14:42:06;14.40;99.90
44886;DHT22;36669;51.428;21.162;2022-09-12T14:44:35;14.50;99.90
44886;DHT22;36669;51.428;21.162;2022-09-12T14:47:18;14.50;99.90
44886;DHT22;36669;51.428;21.162;2022-09-12T14:49:46;14.50;99.90
44886;DHT22;36669;51.428;21.162;2022-09-12T14:52:42;14.50;99.90
44886;DHT22;36669;51.428;21.162;2022-09-12T14:55:27;14.50;99.90
44886;DHT22;36669;51.428;21.162;2022-09-12T14:58:14;14.50;99.90
44886;DHT22;36669;51.428;21.162;2022-09-12T15:06:27;14.40;99.90
44886;DHT22;36669;51.428;21.162;2022-09-12T15:08:54;14.50;99.90
44886;DHT22;36669;51.428;21.162;2022-09-12T15:11:21;14.40;99.90
44886;DHT22;36669;51.428;21.162;2022-09-12T15:13:46;14.40;99.90
44886;DHT22;36669;51.428;21.162;2022-09-12T15:16:12;14.30;99.90
44886;DHT22;36669;51.428;21.162;2022-09-12T15:18:38;14.30;99.90
44886;DHT22;36669;51.428;21.162;2022-09-12T15:21:06;14.20;99.90
44886;DHT22;36669;51.428;21.162;2022-09-12T15:25:59;14.20;99.90
44886;DHT22;36669;51.428;21.162;2022-09-12T15:28:25;14.10;99.90
44886;DHT22;36669;51.428;21.162;2022-09-12T15:30:52;14.10;99.90
44886;DHT22;36669;51.428;21.162;2022-09-12T15:33:19;14.10;99.90
44886;DHT22;36669;51.428;21.162;2022-09-12T15:35:46;14.00;99.90
44886;DHT22;36669;51.428;21.162;2022-09-12T15:38:11;14.00;99.90
44886;DHT22;36669;51.428;21.162;2022-09-12T15:40:37;13.90;99.90
44886;DHT22;36669;51.428;21.162;2022-09-12T15:43:03;13.90;99.90
44886;DHT22;36669;51.428;21.162;2022-09-12T15:45:31;13.90;99.90
44886;DHT22;36669;51.428;21.162;2022-09-12T15:47:57;13.80;99.90
44886;DHT22;36669;51.428;21.162;2022-09-12T15:50:23;13.80;99.90
44886;DHT22;36669;51.428;21.162;2022-09-12T15:52:48;13.80;99.90
44886;DHT22;36669;51.428;21.162;2022-09-12T15:55:20;13.80;99.90
44886;DHT22;36669;51.428;21.162;2022-09-12T15:57:46;13.80;99.90
44886;DHT22;36669;51.428;21.162;2022-09-12T16:00:13;13.80;99.90
44886;DHT22;36669;51.428;21.162;2022-09-12T16:02:38;13.80;99.90
44886;DHT22;36669;51.428;21.162;2022-09-12T16:05:05;13.70;99.90
44886;DHT22;36669;51.428;21.162;2022-09-12T16:07:31;13.70;99.90
44886;DHT22;36669;51.428;21.162;2022-09-12T16:09:56;13.70;99.90
44886;DHT22;36669;51.428;21.162;2022-09-12T16:12:22;13.70;99.90
44886;DHT22;36669;51.428;21.162;2022-09-12T16:14:47;13.60;99.90
44886;DHT22;36669;51.428;21.162;2022-09-12T16:17:13;13.70;99.90
44886;DHT22;36669;51.428;21.162;2022-09-12T16:19:38;13.60;99.90
44886;DHT22;36669;51.428;21.162;2022-09-12T16:22:04;13.60;99.90
44886;DHT22;36669;51.428;21.162;2022-09-12T16:24:29;13.50;99.90
44886;DHT22;36669;51.428;21.162;2022-09-12T16:26:55;13.50;99.90
44886;DHT22;36669;51.428;21.162;2022-09-12T16:29:20;13.50;99.90
44886;DHT22;36669;51.428;21.162;2022-09-12T16:31:46;13.50;99.90
44886;DHT22;36669;51.428;21.162;2022-09-12T16:34:11;13.40;99.90
44886;DHT22;36669;51.428;21.162;2022-09-12T16:36:37;13.40;99.90
44886;DHT22;36669;51.428;21.162;2022-09-12T16:39:03;13.40;99.90
44886;DHT22;36669;51.428;21.162;2022-09-12T16:41:28;13.50;99.90
44886;DHT22;36669;51.428;21.162;2022-09-12T16:43:54;13.40;99.90
44886;DHT22;36669;51.428;21.162;2022-09-12T16:46:22;13.50;99.90
44886;DHT22;36669;51.428;21.162;2022-09-12T16:48:49;13.50;99.90
44886;DHT22;36669;51.428;21.162;2022-09-12T16:51:16;13.50;99.90
44886;DHT22;36669;51.428;21.162;2022-09-12T16:53:42;13.50;99.90
44886;DHT22;36669;51.428;21.162;2022-09-12T16:56:08;13.50;99.90
44886;DHT22;36669;51.428;21.162;2022-09-12T16:58:35;13.40;99.90
44886;DHT22;36669;51.428;21.162;2022-09-12T17:01:20;13.40;99.90
44886;DHT22;36669;51.428;21.162;2022-09-12T17:03:46;13.40;99.90
44886;DHT22;36669;51.428;21.162;2022-09-12T17:06:14;13.40;99.90
44886;DHT22;36669;51.428;21.162;2022-09-12T17:08:41;13.30;99.90
44886;DHT22;36669;51.428;21.162;2022-09-12T17:11:10;13.30;99.90
44886;DHT22;36669;51.428;21.162;2022-09-12T17:13:35;13.30;99.90
44886;DHT22;36669;51.428;21.162;2022-09-12T17:16:06;13.20;99.90
44886;DHT22;36669;51.428;21.162;2022-09-12T17:18:31;13.20;99.90
44886;DHT22;36669;51.428;21.162;2022-09-12T17:20:57;13.20;99.90
44886;DHT22;36669;51.428;21.162;2022-09-12T17:23:22;13.20;99.90
44886;DHT22;36669;51.428;21.162;2022-09-12T17:25:49;13.20;99.90
44886;DHT22;36669;51.428;21.162;2022-09-12T17:28:15;13.20;99.90
44886;DHT22;36669;51.428;21.162;2022-09-12T17:30:41;13.20;99.90
44886;DHT22;36669;51.428;21.162;2022-09-12T17:33:06;13.10;99.90
44886;DHT22;36669;51.428;21.162;2022-09-12T17:35:36;13.10;99.90
44886;DHT22;36669;51.428;21.162;2022-09-12T17:38:02;13.10;99.90
44886;DHT22;36669;51.428;21.162;2022-09-12T17:40:27;13.10;99.90
44886;DHT22;36669;51.428;21.162;2022-09-12T17:42:53;13.10;99.90
44886;DHT22;36669;51.428;21.162;2022-09-12T17:45:19;13.10;99.90
44886;DHT22;36669;51.428;21.162;2022-09-12T17:47:44;13.10;99.90
44886;DHT22;36669;51.428;21.162;2022-09-12T17:50:10;13.10;99.90
44886;DHT22;36669;51.428;21.162;2022-09-12T17:52:35;13.10;99.90
44886;DHT22;36669;51.428;21.162;2022-09-12T17:55:01;13.10;99.90
44886;DHT22;36669;51.428;21.162;2022-09-12T17:57:27;13.10;99.90
44886;DHT22;36669;51.428;21.162;2022-09-12T17:59:52;13.20;99.90
44886;DHT22;36669;51.428;21.162;2022-09-12T18:02:18;13.20;99.90